الصفحة الرئيسية
METAR-TAF:

METAR-TAF

مطار :

ميندوزا, الأرجنتين

دائرة عرض: 32-50S, خط طول: 068-47W, ارتفاع: 705 متر

مراقبة الطقس الحالي

تاريخ ووقت الإصدار 49 دقيقة قبل الساعة 12:00UTC
ريح 2 عقدة من الجنوب الغربي
درجة الحرارة 23°درجة مئوية
الرطوبة 50%
ضغط 1013 hPa
الرؤية 10 كم أو أكثر
الغيوم لا تقل 1500 م ولا وجود لمزنة ركامية السحاب الأسود

METAR: SAME 201200Z 23002KT CAVOK 23/12 Q1013

زمن: 09:49 (12:49 UTC)

توقعات

تاريخ ووقت الإصدار 1ساعة و 49 دقيقة قبل الساعة 11:00UTC
التوقعات صالحة من20 الساعة 12 UTC إلى 21 الساعة 12 UTC
ريح 10 عقدة من الشمال الشرقي
الرؤية 10 كم أو أكثر
غيوم قليلة على ارتفاع 4000 قدم
غيوم قليلة على ارتفاع 5000 قدم, مزن ركامية عمودية.
أصبح
من 20 الساعة 22 UTC إلى 21 الساعة 00 UTC
ريح 10 عقدة من الشمال
الرؤية: 8000 متر
غيوم متفرقة على ارتفاع 4000 قدم
غيوم قليلة على ارتفاع 4000 قدم, مزنة ركامية.
عاصفة رعدية, مطر

TAF: SAME 201100Z 2012/2112 05010KT 9999 FEW040 FEW050TCU TX33/2020Z TN20/2110Z BECMG 2022/2100 36010KT 8000 TSRA SCT040 FEW040CB

أرصاد الطقس والتوقعات من أكثر من 4000 مطار (تقارير الطقس للمطار METAR والتنبؤ بالطقس بالمطارTAF).

المحطات المتاحة هي النقط الصفراء والحمراء على الخريطة.

حرك المؤشر فوق النقطة لمعرفة اسم المحطة.

ثم انقر لمعرفة أرصاد وتوقعات الطقس.

لتغيير الخارطة: اضغط على الأزرار الخضراء مع رمز الصليب الأسود للتكبير. على الزر الأخضر مع شرطة للتصغير، أو على الأسهم الخضراء للخرائط المجاورة.


METAR-TAF: